Umiak I — XJAR — position and weather

sailwx.info

Track history (hours):
 
Tides and Currents Weather Stations Pressure Air Temp Water Temp Dewpoint Dewpoint Depression Visibility Wind Speed Wind Dir Waves Ship Positions

Umiak I

Last reported at 2015-Jul-05 04:34 UTC. Time now 2015-Jul-05 06:07 UTC.
Position N 54°02' E 008°08'.

Length 188 m; draft 11.9 m.

Type: Cargo ship. MMSI: 316013340.

Date/timePositionNaut miles runAvg speedWind from/ knotsBaromVisibWave heightAir tempDewpointWater temp
2015-Jul-05 04:34N 54°02' E 008°08'0 0.0
2015-Jul-05 03:34N 54°02' E 008°08'0 0.0
2015-Jul-05 02:34N 54°02' E 008°08'0 0.1
2015-Jul-05 01:33N 54°02' E 008°08'0 0.1
2015-Jul-05 00:34N 54°02' E 008°08'0 0.0
2015-Jul-04 23:33N 54°02' E 008°08'0 0.0
2015-Jul-04 22:34N 54°02' E 008°08'0 0.0
2015-Jul-04 21:34N 54°02' E 008°08'0 0.2
2015-Jul-04 20:34N 54°02' E 008°08'0 0.0
2015-Jul-04 19:34N 54°02' E 008°08'0 0.0
2015-Jul-04 18:33N 54°02' E 008°08'0 0.0
2015-Jul-04 17:34N 54°02' E 008°08'0 0.0
2015-Jul-04 16:33N 54°02' E 008°08'0 0.0
2015-Jul-04 15:34N 54°02' E 008°08'0 0.0
2015-Jul-04 14:33N 54°02' E 008°08'0 0.0
2015-Jul-04 13:33N 54°02' E 008°08'0 0.2
2015-Jul-04 12:33N 54°02' E 008°08'0 0.0
2015-Jul-04 11:33N 54°02' E 008°08'0 0.0
2015-Jul-04 10:33N 54°02' E 008°08'0 0.0
2015-Jul-04 09:33N 54°02' E 008°08'0 0.2
2015-Jul-04 08:33N 54°02' E 008°08'0 0.0
2015-Jul-04 07:33N 54°02' E 008°08'0 0.0
2015-Jul-04 06:34N 54°02' E 008°08'0 0.0
2015-Jul-04 05:33N 54°02' E 008°08'0 0.0
2015-Jul-04 04:34N 54°02' E 008°08'0 0.1
2015-Jul-04 03:33N 54°02' E 008°08'0 0.0
2015-Jul-04 02:34N 54°02' E 008°08'0 0.0
2015-Jul-04 01:33N 54°02' E 008°08'0 0.1
2015-Jul-04 00:33N 54°02' E 008°08'0 0.1
2015-Jul-03 23:33N 54°02' E 008°08'0 0.0
2015-Jul-03 22:33N 54°02' E 008°08'0 0.0
2015-Jul-03 21:33N 54°02' E 008°08'0 0.1
2015-Jul-03 20:33N 54°02' E 008°08'0 0.1
2015-Jul-03 19:33N 54°02' E 008°08'0 0.0
2015-Jul-03 18:34N 54°02' E 008°08'0 0.0
2015-Jul-03 17:33N 54°02' E 008°08'0 0.0
2015-Jul-03 16:34N 54°02' E 008°08'0 0.0
2015-Jul-03 15:33N 54°02' E 008°08'0 0.0
2015-Jul-03 14:33N 54°02' E 008°08'0 0.1
2015-Jul-03 13:33N 54°02' E 008°08'0 0.2
2015-Jul-03 12:34N 54°02' E 008°08'0 0.1
2015-Jul-03 11:33N 54°02' E 008°09'0 0.0
2015-Jul-03 10:33N 54°02' E 008°09'0 0.0
2015-Jul-03 09:33N 54°02' E 008°09'0 0.0
2015-Jul-03 08:33N 54°02' E 008°08'0 0.2
2015-Jul-03 07:33N 54°02' E 008°08'0 0.0
2015-Jul-03 06:33N 54°02' E 008°08'0 0.0
2015-Jul-03 05:34N 54°02' E 008°08'0 0.0
2015-Jul-03 04:34N 54°02' E 008°08'0 0.0
2015-Jul-03 03:33N 54°02' E 008°08'0 0.0
2015-Jul-03 02:33N 54°02' E 008°08'0 0.1
2015-Jul-03 01:33N 54°02' E 008°08'1 0.6
2015-Jul-03 00:33N 54°02' E 008°07'8 8.3
2015-Jul-02 23:33N 54°03' E 007°53'1211.5
2015-Jul-02 22:32N 54°09' E 007°36'1312.0
2015-Jul-02 21:28N 54°16' E 007°19'1011.4
2015-Jul-02 20:33N 54°23' E 007°05'6210.2
2015-Jul-02 14:26N 55°11' E 005°55'349 9.9
2015-Jul-01 03:15N 58°42' W 002°33'710.4
2015-Jul-01 02:33N 58°42' W 002°47'8 8.4
2015-Jul-01 01:33N 58°43' W 003°03'6 5.8
2015-Jul-01 00:33N 58°43' W 003°14'10 9.7
2015-Jun-30 23:33N 58°46' W 003°33'1110.9
2015-Jun-30 22:33N 58°48' W 003°53'1111.4
2015-Jun-30 21:33N 58°52' W 004°14'1211.7
2015-Jun-30 20:33N 58°55' W 004°36'  
Track history (hours):
 
Tides and Currents Weather Stations Pressure Air Temp Water Temp Dewpoint Dewpoint Depression Visibility Wind Speed Wind Dir Waves Ship Positions

Umiak I

Last reported at 2015-Jul-05 04:34 UTC. Time now 2015-Jul-05 06:07 UTC.
Position N 54°02' E 008°08'.

Length 188 m; draft 11.9 m.

Type: Cargo ship. MMSI: 316013340.

Date/timePositionNaut miles runAvg speedWind from/ knotsBaromVisibWave heightAir tempDewpointWater temp
2015-Jul-05 04:34N 54°02' E 008°08'0 0.0
2015-Jul-05 03:34N 54°02' E 008°08'0 0.0
2015-Jul-05 02:34N 54°02' E 008°08'0 0.1
2015-Jul-05 01:33N 54°02' E 008°08'0 0.1
2015-Jul-05 00:34N 54°02' E 008°08'0 0.0
2015-Jul-04 23:33N 54°02' E 008°08'0 0.0
2015-Jul-04 22:34N 54°02' E 008°08'0 0.0
2015-Jul-04 21:34N 54°02' E 008°08'0 0.2
2015-Jul-04 20:34N 54°02' E 008°08'0 0.0
2015-Jul-04 19:34N 54°02' E 008°08'0 0.0
2015-Jul-04 18:33N 54°02' E 008°08'0 0.0
2015-Jul-04 17:34N 54°02' E 008°08'0 0.0
2015-Jul-04 16:33N 54°02' E 008°08'0 0.0
2015-Jul-04 15:34N 54°02' E 008°08'0 0.0
2015-Jul-04 14:33N 54°02' E 008°08'0 0.0
2015-Jul-04 13:33N 54°02' E 008°08'0 0.2
2015-Jul-04 12:33N 54°02' E 008°08'0 0.0
2015-Jul-04 11:33N 54°02' E 008°08'0 0.0
2015-Jul-04 10:33N 54°02' E 008°08'0 0.0
2015-Jul-04 09:33N 54°02' E 008°08'0 0.2
2015-Jul-04 08:33N 54°02' E 008°08'0 0.0
2015-Jul-04 07:33N 54°02' E 008°08'0 0.0
2015-Jul-04 06:34N 54°02' E 008°08'0 0.0
2015-Jul-04 05:33N 54°02' E 008°08'0 0.0
2015-Jul-04 04:34N 54°02' E 008°08'0 0.1
2015-Jul-04 03:33N 54°02' E 008°08'0 0.0
2015-Jul-04 02:34N 54°02' E 008°08'0 0.0
2015-Jul-04 01:33N 54°02' E 008°08'0 0.1
2015-Jul-04 00:33N 54°02' E 008°08'0 0.1
2015-Jul-03 23:33N 54°02' E 008°08'0 0.0
2015-Jul-03 22:33N 54°02' E 008°08'0 0.0
2015-Jul-03 21:33N 54°02' E 008°08'0 0.1
2015-Jul-03 20:33N 54°02' E 008°08'0 0.1
2015-Jul-03 19:33N 54°02' E 008°08'0 0.0
2015-Jul-03 18:34N 54°02' E 008°08'0 0.0
2015-Jul-03 17:33N 54°02' E 008°08'0 0.0
2015-Jul-03 16:34N 54°02' E 008°08'0 0.0
2015-Jul-03 15:33N 54°02' E 008°08'0 0.0
2015-Jul-03 14:33N 54°02' E 008°08'0 0.1
2015-Jul-03 13:33N 54°02' E 008°08'0 0.2
2015-Jul-03 12:34N 54°02' E 008°08'0 0.1
2015-Jul-03 11:33N 54°02' E 008°09'0 0.0
2015-Jul-03 10:33N 54°02' E 008°09'0 0.0
2015-Jul-03 09:33N 54°02' E 008°09'0 0.0
2015-Jul-03 08:33N 54°02' E 008°08'0 0.2
2015-Jul-03 07:33N 54°02' E 008°08'0 0.0
2015-Jul-03 06:33N 54°02' E 008°08'0 0.0
2015-Jul-03 05:34N 54°02' E 008°08'0 0.0
2015-Jul-03 04:34N 54°02' E 008°08'0 0.0
2015-Jul-03 03:33N 54°02' E 008°08'0 0.0
2015-Jul-03 02:33N 54°02' E 008°08'0 0.1
2015-Jul-03 01:33N 54°02' E 008°08'1 0.6
2015-Jul-03 00:33N 54°02' E 008°07'8 8.3
2015-Jul-02 23:33N 54°03' E 007°53'1211.5
2015-Jul-02 22:32N 54°09' E 007°36'1312.0
2015-Jul-02 21:28N 54°16' E 007°19'1011.4
2015-Jul-02 20:33N 54°23' E 007°05'6210.2
2015-Jul-02 14:26N 55°11' E 005°55'349 9.9
2015-Jul-01 03:15N 58°42' W 002°33'710.4
2015-Jul-01 02:33N 58°42' W 002°47'8 8.4
2015-Jul-01 01:33N 58°43' W 003°03'6 5.8
2015-Jul-01 00:33N 58°43' W 003°14'10 9.7
2015-Jun-30 23:33N 58°46' W 003°33'1110.9
2015-Jun-30 22:33N 58°48' W 003°53'1111.4
2015-Jun-30 21:33N 58°52' W 004°14'1211.7
2015-Jun-30 20:33N 58°55' W 004°36'  

Dump ship's entire track history